sensor_id;sensor_type;location;lat;lon;timestamp;pressure;altitude;pressure_sealevel;temperature;humidity
68193;BME280;55012;47.562;18.414;2023-03-14T00:01:32;97836.69;;;7.10;100.00
68193;BME280;55012;47.562;18.414;2023-03-14T00:03:58;97856.22;;;7.07;100.00
68193;BME280;55012;47.562;18.414;2023-03-14T00:06:24;97840.38;;;7.02;100.00
68193;BME280;55012;47.562;18.414;2023-03-14T00:08:50;97839.97;;;7.00;100.00
68193;BME280;55012;47.562;18.414;2023-03-14T00:11:19;97852.22;;;6.97;100.00
68193;BME280;55012;47.562;18.414;2023-03-14T00:13:54;97833.75;;;6.96;100.00
68193;BME280;55012;47.562;18.414;2023-03-14T00:16:20;97821.41;;;6.95;100.00
68193;BME280;55012;47.562;18.414;2023-03-14T00:18:46;97789.28;;;7.02;100.00
68193;BME280;55012;47.562;18.414;2023-03-14T00:21:11;97809.38;;;7.08;100.00
68193;BME280;55012;47.562;18.414;2023-03-14T00:23:38;97810.25;;;7.12;100.00
68193;BME280;55012;47.562;18.414;2023-03-14T00:28:33;97801.03;;;7.13;100.00
68193;BME280;55012;47.562;18.414;2023-03-14T00:31:02;97788.72;;;7.12;100.00
68193;BME280;55012;47.562;18.414;2023-03-14T00:33:27;97792.53;;;7.11;100.00
68193;BME280;55012;47.562;18.414;2023-03-14T00:35:58;97808.31;;;7.13;100.00
68193;BME280;55012;47.562;18.414;2023-03-14T00:38:24;97815.63;;;7.12;100.00
68193;BME280;55012;47.562;18.414;2023-03-14T00:40:51;97808.59;;;7.08;100.00
68193;BME280;55012;47.562;18.414;2023-03-14T00:43:17;97804.72;;;7.05;100.00
68193;BME280;55012;47.562;18.414;2023-03-14T00:45:43;97795.44;;;7.02;100.00
68193;BME280;55012;47.562;18.414;2023-03-14T00:48:08;97782.00;;;7.02;100.00
68193;BME280;55012;47.562;18.414;2023-03-14T00:50:34;97785.13;;;7.04;100.00
68193;BME280;55012;47.562;18.414;2023-03-14T00:52:59;97766.72;;;7.07;100.00
68193;BME280;55012;47.562;18.414;2023-03-14T00:55:25;97786.81;;;7.13;100.00
68193;BME280;55012;47.562;18.414;2023-03-14T00:57:50;97771.09;;;7.15;100.00
68193;BME280;55012;47.562;18.414;2023-03-14T01:00:16;97783.63;;;7.07;100.00
68193;BME280;55012;47.562;18.414;2023-03-14T01:02:42;97785.41;;;6.99;100.00
68193;BME280;55012;47.562;18.414;2023-03-14T01:05:07;97760.38;;;6.95;100.00
68193;BME280;55012;47.562;18.414;2023-03-14T01:07:36;97769.63;;;6.98;100.00
68193;BME280;55012;47.562;18.414;2023-03-14T01:10:02;97746.28;;;7.02;100.00
68193;BME280;55012;47.562;18.414;2023-03-14T01:12:29;97736.28;;;7.02;100.00
68193;BME280;55012;47.562;18.414;2023-03-14T01:14:54;97752.50;;;7.06;100.00
68193;BME280;55012;47.562;18.414;2023-03-14T01:17:20;97725.00;;;7.16;100.00
68193;BME280;55012;47.562;18.414;2023-03-14T01:19:45;97737.50;;;7.28;100.00
68193;BME280;55012;47.562;18.414;2023-03-14T01:22:11;97735.59;;;7.28;100.00
68193;BME280;55012;47.562;18.414;2023-03-14T01:24:37;97723.69;;;7.29;100.00
68193;BME280;55012;47.562;18.414;2023-03-14T01:27:03;97730.09;;;7.21;100.00
68193;BME280;55012;47.562;18.414;2023-03-14T01:29:28;97748.38;;;7.12;100.00
68193;BME280;55012;47.562;18.414;2023-03-14T01:31:54;97721.72;;;7.03;100.00
68193;BME280;55012;47.562;18.414;2023-03-14T01:34:20;97715.50;;;6.99;100.00
68193;BME280;55012;47.562;18.414;2023-03-14T01:36:45;97728.41;;;6.90;100.00
68193;BME280;55012;47.562;18.414;2023-03-14T01:39:11;97724.09;;;6.86;100.00
68193;BME280;55012;47.562;18.414;2023-03-14T01:41:36;97731.25;;;6.78;100.00
68193;BME280;55012;47.562;18.414;2023-03-14T01:44:02;97719.25;;;6.72;100.00
68193;BME280;55012;47.562;18.414;2023-03-14T01:49:37;97676.03;;;6.61;100.00
68193;BME280;55012;47.562;18.414;2023-03-14T01:54:42;97707.06;;;6.78;100.00
68193;BME280;55012;47.562;18.414;2023-03-14T01:57:30;97706.34;;;6.81;100.00
68193;BME280;55012;47.562;18.414;2023-03-14T02:00:04;97694.69;;;6.73;100.00
68193;BME280;55012;47.562;18.414;2023-03-14T02:02:37;97716.63;;;6.75;100.00
68193;BME280;55012;47.562;18.414;2023-03-14T02:05:05;97734.44;;;6.84;100.00
68193;BME280;55012;47.562;18.414;2023-03-14T02:07:35;97767.59;;;6.91;100.00
68193;BME280;55012;47.562;18.414;2023-03-14T02:10:03;97780.25;;;6.91;100.00
68193;BME280;55012;47.562;18.414;2023-03-14T02:12:31;97767.53;;;6.88;100.00
68193;BME280;55012;47.562;18.414;2023-03-14T02:14:57;97768.91;;;7.01;100.00
68193;BME280;55012;47.562;18.414;2023-03-14T02:17:23;97810.34;;;7.19;100.00
68193;BME280;55012;47.562;18.414;2023-03-14T02:22:38;97794.34;;;7.26;100.00
68193;BME280;55012;47.562;18.414;2023-03-14T02:27:36;97735.59;;;7.06;100.00
68193;BME280;55012;47.562;18.414;2023-03-14T02:30:12;97750.81;;;6.98;100.00
68193;BME280;55012;47.562;18.414;2023-03-14T02:32:41;97750.31;;;6.92;100.00
68193;BME280;55012;47.562;18.414;2023-03-14T02:35:11;97751.31;;;7.03;100.00
68193;BME280;55012;47.562;18.414;2023-03-14T02:38:10;97775.03;;;7.21;100.00
68193;BME280;55012;47.562;18.414;2023-03-14T02:40:40;97781.56;;;7.43;100.00
68193;BME280;55012;47.562;18.414;2023-03-14T02:43:05;97764.84;;;7.79;100.00
68193;BME280;55012;47.562;18.414;2023-03-14T02:45:35;97755.88;;;7.98;100.00
68193;BME280;55012;47.562;18.414;2023-03-14T02:48:10;97726.16;;;7.91;100.00
68193;BME280;55012;47.562;18.414;2023-03-14T02:50:37;97692.34;;;7.67;100.00
68193;BME280;55012;47.562;18.414;2023-03-14T02:53:02;97690.28;;;7.57;100.00
68193;BME280;55012;47.562;18.414;2023-03-14T02:55:28;97672.38;;;7.42;100.00
68193;BME280;55012;47.562;18.414;2023-03-14T02:57:53;97693.78;;;7.35;100.00
68193;BME280;55012;47.562;18.414;2023-03-14T03:00:19;97719.09;;;7.30;100.00
68193;BME280;55012;47.562;18.414;2023-03-14T03:02:45;97721.66;;;7.23;100.00
68193;BME280;55012;47.562;18.414;2023-03-14T03:05:11;97711.06;;;7.11;100.00
68193;BME280;55012;47.562;18.414;2023-03-14T03:07:37;97718.91;;;6.96;100.00
68193;BME280;55012;47.562;18.414;2023-03-14T03:10:03;97703.31;;;6.83;100.00
68193;BME280;55012;47.562;18.414;2023-03-14T03:12:29;97712.59;;;6.66;100.00
68193;BME280;55012;47.562;18.414;2023-03-14T03:14:54;97719.63;;;6.51;100.00
68193;BME280;55012;47.562;18.414;2023-03-14T03:17:20;97715.19;;;6.39;100.00
68193;BME280;55012;47.562;18.414;2023-03-14T03:19:45;97765.63;;;6.30;100.00
68193;BME280;55012;47.562;18.414;2023-03-14T03:22:11;97806.19;;;6.25;100.00
68193;BME280;55012;47.562;18.414;2023-03-14T03:24:36;97853.31;;;6.23;100.00
68193;BME280;55012;47.562;18.414;2023-03-14T03:27:02;97866.66;;;6.19;100.00
68193;BME280;55012;47.562;18.414;2023-03-14T03:29:27;97907.63;;;6.16;100.00
68193;BME280;55012;47.562;18.414;2023-03-14T03:31:53;97973.56;;;6.13;100.00
68193;BME280;55012;47.562;18.414;2023-03-14T03:34:18;97995.97;;;6.05;100.00
68193;BME280;55012;47.562;18.414;2023-03-14T03:36:44;98026.19;;;6.02;100.00
68193;BME280;55012;47.562;18.414;2023-03-14T03:39:09;98044.88;;;5.99;100.00
68193;BME280;55012;47.562;18.414;2023-03-14T03:41:35;98091.66;;;5.98;100.00
68193;BME280;55012;47.562;18.414;2023-03-14T03:44:00;98119.63;;;5.97;100.00
68193;BME280;55012;47.562;18.414;2023-03-14T03:46:26;98149.81;;;5.94;100.00
68193;BME280;55012;47.562;18.414;2023-03-14T03:48:55;98171.63;;;5.92;100.00
68193;BME280;55012;47.562;18.414;2023-03-14T03:51:21;98188.38;;;5.89;100.00
68193;BME280;55012;47.562;18.414;2023-03-14T03:53:46;98197.88;;;5.86;100.00
68193;BME280;55012;47.562;18.414;2023-03-14T03:56:12;98238.06;;;5.83;100.00
68193;BME280;55012;47.562;18.414;2023-03-14T03:58:37;98247.66;;;5.84;100.00
68193;BME280;55012;47.562;18.414;2023-03-14T04:01:07;98265.66;;;5.83;100.00
68193;BME280;55012;47.562;18.414;2023-03-14T04:03:33;98293.72;;;5.86;100.00
68193;BME280;55012;47.562;18.414;2023-03-14T04:06:00;98307.84;;;5.95;100.00
68193;BME280;55012;47.562;18.414;2023-03-14T04:08:26;98327.75;;;6.06;100.00
68193;BME280;55012;47.562;18.414;2023-03-14T04:10:57;98348.34;;;6.14;100.00
68193;BME280;55012;47.562;18.414;2023-03-14T04:13:24;98355.50;;;6.23;100.00
68193;BME280;55012;47.562;18.414;2023-03-14T04:15:50;98374.41;;;6.38;100.00
68193;BME280;55012;47.562;18.414;2023-03-14T04:18:16;98371.13;;;6.45;100.00
68193;BME280;55012;47.562;18.414;2023-03-14T04:20:42;98372.13;;;6.53;100.00
68193;BME280;55012;47.562;18.414;2023-03-14T04:23:07;98381.63;;;6.62;100.00
68193;BME280;55012;47.562;18.414;2023-03-14T04:25:32;98385.50;;;6.77;100.00
68193;BME280;55012;47.562;18.414;2023-03-14T04:27:58;98381.22;;;6.88;100.00
68193;BME280;55012;47.562;18.414;2023-03-14T04:30:23;98370.69;;;6.95;100.00
68193;BME280;55012;47.562;18.414;2023-03-14T04:32:49;98352.28;;;6.97;100.00
68193;BME280;55012;47.562;18.414;2023-03-14T04:35:14;98351.06;;;6.95;100.00
68193;BME280;55012;47.562;18.414;2023-03-14T04:37:40;98328.34;;;6.92;100.00
68193;BME280;55012;47.562;18.414;2023-03-14T04:40:09;98309.50;;;6.92;100.00
68193;BME280;55012;47.562;18.414;2023-03-14T04:42:34;98324.16;;;6.95;100.00
68193;BME280;55012;47.562;18.414;2023-03-14T04:45:00;98315.44;;;6.98;100.00
68193;BME280;55012;47.562;18.414;2023-03-14T04:47:26;98327.06;;;7.02;100.00
68193;BME280;55012;47.562;18.414;2023-03-14T04:49:51;98328.28;;;7.04;100.00
68193;BME280;55012;47.562;18.414;2023-03-14T04:52:17;98319.75;;;7.02;100.00
68193;BME280;55012;47.562;18.414;2023-03-14T04:54:42;98322.47;;;7.02;100.00
68193;BME280;55012;47.562;18.414;2023-03-14T04:57:08;98306.25;;;6.99;100.00
68193;BME280;55012;47.562;18.414;2023-03-14T04:59:34;98317.69;;;6.96;100.00
68193;BME280;55012;47.562;18.414;2023-03-14T05:01:59;98302.91;;;6.90;100.00
68193;BME280;55012;47.562;18.414;2023-03-14T05:04:24;98303.94;;;6.85;100.00
68193;BME280;55012;47.562;18.414;2023-03-14T05:06:50;98301.59;;;6.84;100.00
68193;BME280;55012;47.562;18.414;2023-03-14T05:09:15;98300.81;;;6.83;100.00
68193;BME280;55012;47.562;18.414;2023-03-14T05:11:41;98292.41;;;6.85;100.00
68193;BME280;55012;47.562;18.414;2023-03-14T05:14:06;98296.22;;;6.84;100.00
68193;BME280;55012;47.562;18.414;2023-03-14T05:16:32;98281.91;;;6.80;100.00
68193;BME280;55012;47.562;18.414;2023-03-14T05:18:57;98283.28;;;6.73;100.00
68193;BME280;55012;47.562;18.414;2023-03-14T05:21:23;98274.31;;;6.69;100.00
68193;BME280;55012;47.562;18.414;2023-03-14T05:23:48;98281.94;;;6.67;100.00
68193;BME280;55012;47.562;18.414;2023-03-14T05:26:14;98289.66;;;6.69;100.00
68193;BME280;55012;47.562;18.414;2023-03-14T05:28:42;98297.84;;;6.72;100.00
68193;BME280;55012;47.562;18.414;2023-03-14T05:31:08;98296.81;;;6.77;100.00
68193;BME280;55012;47.562;18.414;2023-03-14T05:33:33;98287.97;;;6.76;100.00
68193;BME280;55012;47.562;18.414;2023-03-14T05:35:59;98289.63;;;6.81;100.00
68193;BME280;55012;47.562;18.414;2023-03-14T05:38:24;98304.84;;;6.89;100.00
68193;BME280;55012;47.562;18.414;2023-03-14T05:40:50;98298.16;;;6.99;100.00
68193;BME280;55012;47.562;18.414;2023-03-14T05:43:15;98296.81;;;7.05;100.00
68193;BME280;55012;47.562;18.414;2023-03-14T05:45:42;98282.41;;;7.13;100.00
68193;BME280;55012;47.562;18.414;2023-03-14T05:48:07;98271.84;;;7.20;100.00
68193;BME280;55012;47.562;18.414;2023-03-14T05:50:33;98263.50;;;7.25;100.00
68193;BME280;55012;47.562;18.414;2023-03-14T05:52:58;98254.06;;;7.31;100.00
68193;BME280;55012;47.562;18.414;2023-03-14T05:55:24;98244.25;;;7.39;100.00
68193;BME280;55012;47.562;18.414;2023-03-14T05:57:50;98237.22;;;7.50;100.00
68193;BME280;55012;47.562;18.414;2023-03-14T06:00:16;98234.75;;;7.61;100.00
68193;BME280;55012;47.562;18.414;2023-03-14T06:02:41;98225.72;;;7.69;100.00
68193;BME280;55012;47.562;18.414;2023-03-14T06:05:07;98212.88;;;7.78;100.00
68193;BME280;55012;47.562;18.414;2023-03-14T06:07:33;98204.84;;;7.82;100.00
68193;BME280;55012;47.562;18.414;2023-03-14T06:09:58;98191.19;;;7.91;100.00
68193;BME280;55012;47.562;18.414;2023-03-14T06:12:24;98188.25;;;7.96;100.00
68193;BME280;55012;47.562;18.414;2023-03-14T06:14:49;98179.50;;;8.02;100.00
68193;BME280;55012;47.562;18.414;2023-03-14T06:17:15;98176.13;;;8.05;100.00
68193;BME280;55012;47.562;18.414;2023-03-14T06:19:40;98175.91;;;8.14;100.00
68193;BME280;55012;47.562;18.414;2023-03-14T06:22:06;98164.41;;;8.17;100.00
68193;BME280;55012;47.562;18.414;2023-03-14T06:24:31;98164.97;;;8.26;100.00
68193;BME280;55012;47.562;18.414;2023-03-14T06:26:57;98169.75;;;8.33;100.00
68193;BME280;55012;47.562;18.414;2023-03-14T06:29:22;98166.84;;;8.41;100.00
68193;BME280;55012;47.562;18.414;2023-03-14T06:31:48;98161.59;;;8.49;100.00
68193;BME280;55012;47.562;18.414;2023-03-14T06:34:13;98150.19;;;8.55;100.00
68193;BME280;55012;47.562;18.414;2023-03-14T06:36:39;98154.84;;;8.58;100.00
68193;BME280;55012;47.562;18.414;2023-03-14T06:39:04;98121.34;;;8.59;100.00
68193;BME280;55012;47.562;18.414;2023-03-14T06:41:30;98093.34;;;8.64;100.00
68193;BME280;55012;47.562;18.414;2023-03-14T06:43:55;98087.28;;;8.70;100.00
68193;BME280;55012;47.562;18.414;2023-03-14T06:46:21;98079.31;;;8.78;100.00
68193;BME280;55012;47.562;18.414;2023-03-14T06:48:46;98070.13;;;8.82;100.00
68193;BME280;55012;47.562;18.414;2023-03-14T06:51:12;98051.56;;;8.77;100.00
68193;BME280;55012;47.562;18.414;2023-03-14T06:53:37;98047.38;;;8.80;100.00
68193;BME280;55012;47.562;18.414;2023-03-14T06:56:03;98031.56;;;8.78;100.00
68193;BME280;55012;47.562;18.414;2023-03-14T06:58:29;98020.41;;;8.80;100.00
68193;BME280;55012;47.562;18.414;2023-03-14T07:00:54;98020.81;;;8.82;100.00
68193;BME280;55012;47.562;18.414;2023-03-14T07:03:20;98019.63;;;8.79;100.00
68193;BME280;55012;47.562;18.414;2023-03-14T07:05:46;98014.16;;;8.76;100.00
68193;BME280;55012;47.562;18.414;2023-03-14T07:08:11;97999.97;;;8.79;100.00
68193;BME280;55012;47.562;18.414;2023-03-14T07:10:37;98006.56;;;8.81;100.00
68193;BME280;55012;47.562;18.414;2023-03-14T07:13:02;98010.13;;;8.89;100.00
68193;BME280;55012;47.562;18.414;2023-03-14T07:15:28;98002.66;;;9.05;100.00
68193;BME280;55012;47.562;18.414;2023-03-14T07:17:53;97985.94;;;9.22;100.00
68193;BME280;55012;47.562;18.414;2023-03-14T07:20:19;97975.69;;;9.35;100.00
68193;BME280;55012;47.562;18.414;2023-03-14T07:22:47;97958.16;;;9.52;100.00
68193;BME280;55012;47.562;18.414;2023-03-14T07:25:13;97942.09;;;9.66;100.00
68193;BME280;55012;47.562;18.414;2023-03-14T07:27:39;97941.47;;;9.80;100.00
68193;BME280;55012;47.562;18.414;2023-03-14T07:30:04;97934.22;;;9.91;100.00
68193;BME280;55012;47.562;18.414;2023-03-14T07:32:30;97925.88;;;10.03;100.00
68193;BME280;55012;47.562;18.414;2023-03-14T07:34:56;97916.31;;;10.17;100.00
68193;BME280;55012;47.562;18.414;2023-03-14T07:37:21;97910.66;;;10.29;100.00
68193;BME280;55012;47.562;18.414;2023-03-14T07:39:47;97895.28;;;10.36;100.00
68193;BME280;55012;47.562;18.414;2023-03-14T07:42:12;97888.00;;;10.44;100.00
68193;BME280;55012;47.562;18.414;2023-03-14T07:44:39;97880.69;;;10.52;100.00
68193;BME280;55012;47.562;18.414;2023-03-14T07:47:05;97868.78;;;10.60;100.00
68193;BME280;55012;47.562;18.414;2023-03-14T07:49:30;97860.72;;;10.71;100.00
68193;BME280;55012;47.562;18.414;2023-03-14T07:51:55;97846.50;;;10.84;100.00
68193;BME280;55012;47.562;18.414;2023-03-14T07:54:21;97807.06;;;10.87;100.00
68193;BME280;55012;47.562;18.414;2023-03-14T07:56:47;97813.66;;;10.93;100.00
68193;BME280;55012;47.562;18.414;2023-03-14T07:59:12;97808.66;;;11.02;100.00
68193;BME280;55012;47.562;18.414;2023-03-14T08:01:38;97791.66;;;11.05;100.00
68193;BME280;55012;47.562;18.414;2023-03-14T08:04:03;97796.72;;;11.10;100.00
68193;BME280;55012;47.562;18.414;2023-03-14T08:06:29;97797.50;;;11.21;100.00
68193;BME280;55012;47.562;18.414;2023-03-14T08:08:55;97795.97;;;11.35;100.00
68193;BME280;55012;47.562;18.414;2023-03-14T08:11:20;97781.28;;;11.43;100.00
68193;BME280;55012;47.562;18.414;2023-03-14T08:13:46;97787.47;;;11.43;100.00
68193;BME280;55012;47.562;18.414;2023-03-14T08:16:16;97795.59;;;11.43;100.00
68193;BME280;55012;47.562;18.414;2023-03-14T08:18:42;97781.28;;;11.43;100.00
68193;BME280;55012;47.562;18.414;2023-03-14T08:21:08;97777.00;;;11.42;100.00
68193;BME280;55012;47.562;18.414;2023-03-14T08:23:33;97782.44;;;11.35;100.00
68193;BME280;55012;47.562;18.414;2023-03-14T08:25:59;97776.25;;;11.27;100.00
68193;BME280;55012;47.562;18.414;2023-03-14T08:28:24;97774.31;;;11.28;100.00
68193;BME280;55012;47.562;18.414;2023-03-14T08:30:55;97782.44;;;11.31;100.00
68193;BME280;55012;47.562;18.414;2023-03-14T08:33:21;97780.91;;;11.37;100.00
68193;BME280;55012;47.562;18.414;2023-03-14T08:35:47;97762.72;;;11.45;100.00
68193;BME280;55012;47.562;18.414;2023-03-14T08:38:12;97762.72;;;11.48;100.00
68193;BME280;55012;47.562;18.414;2023-03-14T08:40:38;97754.22;;;11.53;100.00
68193;BME280;55012;47.562;18.414;2023-03-14T08:43:03;97742.19;;;11.58;100.00
68193;BME280;55012;47.562;18.414;2023-03-14T08:45:29;97735.25;;;11.71;100.00
68193;BME280;55012;47.562;18.414;2023-03-14T08:47:54;97719.78;;;11.86;100.00
68193;BME280;55012;47.562;18.414;2023-03-14T08:50:20;97701.94;;;12.03;100.00
68193;BME280;55012;47.562;18.414;2023-03-14T08:52:45;97692.97;;;12.20;100.00
68193;BME280;55012;47.562;18.414;2023-03-14T08:55:11;97705.28;;;12.39;100.00
68193;BME280;55012;47.562;18.414;2023-03-14T08:57:37;97679.66;;;12.54;100.00
68193;BME280;55012;47.562;18.414;2023-03-14T09:00:04;97666.41;;;12.67;100.00
68193;BME280;55012;47.562;18.414;2023-03-14T09:02:36;97645.00;;;12.83;100.00
68193;BME280;55012;47.562;18.414;2023-03-14T09:05:01;97647.97;;;13.00;100.00
68193;BME280;55012;47.562;18.414;2023-03-14T09:07:27;97639.28;;;13.19;100.00
68193;BME280;55012;47.562;18.414;2023-03-14T09:09:52;97629.03;;;13.41;100.00
68193;BME280;55012;47.562;18.414;2023-03-14T09:12:18;97635.72;;;13.70;100.00
68193;BME280;55012;47.562;18.414;2023-03-14T09:14:43;97635.72;;;14.08;100.00
68193;BME280;55012;47.562;18.414;2023-03-14T09:17:09;97610.75;;;14.44;100.00
68193;BME280;55012;47.562;18.414;2023-03-14T09:19:34;97581.16;;;14.76;100.00
68193;BME280;55012;47.562;18.414;2023-03-14T09:22:00;97548.00;;;15.05;100.00
68193;BME280;55012;47.562;18.414;2023-03-14T09:24:25;97505.59;;;15.27;100.00
68193;BME280;55012;47.562;18.414;2023-03-14T09:26:51;97478.78;;;15.45;100.00
68193;BME280;55012;47.562;18.414;2023-03-14T09:29:16;97486.97;;;15.65;100.00
68193;BME280;55012;47.562;18.414;2023-03-14T09:31:42;97465.22;;;15.82;100.00
68193;BME280;55012;47.562;18.414;2023-03-14T09:34:07;97462.72;;;16.07;100.00
68193;BME280;55012;47.562;18.414;2023-03-14T09:36:33;97453.50;;;16.34;100.00
68193;BME280;55012;47.562;18.414;2023-03-14T09:38:58;97466.81;;;16.64;100.00
68193;BME280;55012;47.562;18.414;2023-03-14T09:41:34;97464.91;;;16.94;100.00
68193;BME280;55012;47.562;18.414;2023-03-14T09:44:05;97467.09;;;17.15;100.00
68193;BME280;55012;47.562;18.414;2023-03-14T09:46:35;97472.16;;;17.29;100.00
68193;BME280;55012;47.562;18.414;2023-03-14T09:49:02;97509.81;;;17.38;100.00
68193;BME280;55012;47.562;18.414;2023-03-14T09:51:27;97518.78;;;17.38;100.00
68193;BME280;55012;47.562;18.414;2023-03-14T09:53:53;97534.94;;;17.33;100.00
68193;BME280;55012;47.562;18.414;2023-03-14T09:56:21;97544.66;;;17.34;100.00
68193;BME280;55012;47.562;18.414;2023-03-14T09:59:03;97550.28;;;17.43;100.00
68193;BME280;55012;47.562;18.414;2023-03-14T10:01:32;97557.78;;;17.55;100.00
68193;BME280;55012;47.562;18.414;2023-03-14T10:04:04;97592.91;;;17.69;100.00
68193;BME280;55012;47.562;18.414;2023-03-14T10:06:31;97611.72;;;17.84;100.00
68193;BME280;55012;47.562;18.414;2023-03-14T10:08:57;97617.22;;;17.96;100.00
68193;BME280;55012;47.562;18.414;2023-03-14T10:11:23;97628.53;;;18.11;100.00
68193;BME280;55012;47.562;18.414;2023-03-14T10:14:05;97655.81;;;18.15;100.00
68193;BME280;55012;47.562;18.414;2023-03-14T10:16:39;97684.38;;;18.14;100.00
68193;BME280;55012;47.562;18.414;2023-03-14T10:19:12;97690.63;;;18.14;100.00
68193;BME280;55012;47.562;18.414;2023-03-14T10:22:00;97703.72;;;18.07;100.00
68193;BME280;55012;47.562;18.414;2023-03-14T10:26:57;97736.63;;;18.03;100.00
68193;BME280;55012;47.562;18.414;2023-03-14T10:29:26;97741.88;;;17.98;100.00
68193;BME280;55012;47.562;18.414;2023-03-14T10:31:59;97731.72;;;17.98;100.00
68193;BME280;55012;47.562;18.414;2023-03-14T10:34:36;97739.47;;;18.00;100.00
68193;BME280;55012;47.562;18.414;2023-03-14T10:37:18;97759.31;;;18.04;100.00
68193;BME280;55012;47.562;18.414;2023-03-14T10:39:51;97769.47;;;18.03;100.00
68193;BME280;55012;47.562;18.414;2023-03-14T10:42:24;97765.56;;;18.04;100.00
68193;BME280;55012;47.562;18.414;2023-03-14T10:45:03;97772.22;;;18.03;100.00
68193;BME280;55012;47.562;18.414;2023-03-14T10:47:32;97769.91;;;18.02;100.00
68193;BME280;55012;47.562;18.414;2023-03-14T10:50:21;97778.72;;;17.93;100.00
68193;BME280;55012;47.562;18.414;2023-03-14T10:52:48;97765.22;;;17.86;100.00
68193;BME280;55012;47.562;18.414;2023-03-14T10:55:16;97774.13;;;17.90;100.00
68193;BME280;55012;47.562;18.414;2023-03-14T10:57:42;97771.63;;;17.95;100.00
68193;BME280;55012;47.562;18.414;2023-03-14T11:00:21;97770.44;;;17.96;100.00
68193;BME280;55012;47.562;18.414;2023-03-14T11:03:04;97757.94;;;17.95;100.00
68193;BME280;55012;47.562;18.414;2023-03-14T11:05:53;97752.84;;;17.98;100.00
68193;BME280;55012;47.562;18.414;2023-03-14T11:08:25;97759.41;;;18.00;100.00
68193;BME280;55012;47.562;18.414;2023-03-14T11:11:22;97758.53;;;18.03;100.00
68193;BME280;55012;47.562;18.414;2023-03-14T11:14:08;97763.94;;;18.07;100.00
68193;BME280;55012;47.562;18.414;2023-03-14T11:17:02;97766.13;;;18.12;100.00
68193;BME280;55012;47.562;18.414;2023-03-14T11:22:37;97763.38;;;18.12;100.00
68193;BME280;55012;47.562;18.414;2023-03-14T11:27:47;97767.72;;;18.25;100.00
68193;BME280;55012;47.562;18.414;2023-03-14T11:30:16;97763.94;;;18.36;100.00
68193;BME280;55012;47.562;18.414;2023-03-14T11:32:51;97750.09;;;18.56;100.00
68193;BME280;55012;47.562;18.414;2023-03-14T11:35:30;97760.59;;;18.73;100.00
68193;BME280;55012;47.562;18.414;2023-03-14T11:41:01;97740.03;;;19.07;100.00
68193;BME280;55012;47.562;18.414;2023-03-14T11:43:37;97742.53;;;19.27;100.00
68193;BME280;55012;47.562;18.414;2023-03-14T11:46:23;97740.13;;;19.42;100.00
68193;BME280;55012;47.562;18.414;2023-03-14T11:51:39;97727.91;;;19.81;100.00
68193;BME280;55012;47.562;18.414;2023-03-14T11:57:11;97712.97;;;19.82;100.00
68193;BME280;55012;47.562;18.414;2023-03-14T12:08:33;97692.50;;;19.61;100.00
68193;BME280;55012;47.562;18.414;2023-03-14T12:10:26;97697.44;;;19.53;100.00
68193;BME280;55012;47.562;18.414;2023-03-14T12:12:52;97695.78;;;19.43;100.00
68193;BME280;55012;47.562;18.414;2023-03-14T12:15:22;97704.16;;;19.40;100.00
68193;BME280;55012;47.562;18.414;2023-03-14T12:17:54;97699.97;;;19.35;100.00
68193;BME280;55012;47.562;18.414;2023-03-14T12:20:22;97640.78;;;19.25;100.00
68193;BME280;55012;47.562;18.414;2023-03-14T12:22:52;97693.09;;;19.18;100.00
68193;BME280;55012;47.562;18.414;2023-03-14T12:25:26;97656.25;;;19.19;100.00
68193;BME280;55012;47.562;18.414;2023-03-14T12:33:14;97672.03;;;19.15;100.00
68193;BME280;55012;47.562;18.414;2023-03-14T12:35:52;97684.88;;;19.05;100.00
68193;BME280;55012;47.562;18.414;2023-03-14T12:38:56;97674.47;;;19.00;100.00
68193;BME280;55012;47.562;18.414;2023-03-14T12:41:36;97680.47;;;18.95;100.00
68193;BME280;55012;47.562;18.414;2023-03-14T12:46:53;97669.28;;;18.76;100.00
68193;BME280;55012;47.562;18.414;2023-03-14T12:49:19;97677.50;;;18.64;100.00
68193;BME280;55012;47.562;18.414;2023-03-14T12:51:45;97662.56;;;18.52;100.00
68193;BME280;55012;47.562;18.414;2023-03-14T12:54:29;97668.78;;;18.40;100.00
68193;BME280;55012;47.562;18.414;2023-03-14T12:57:26;97670.28;;;18.28;100.00
68193;BME280;55012;47.562;18.414;2023-03-14T13:00:00;97673.88;;;18.12;100.00
68193;BME280;55012;47.562;18.414;2023-03-14T13:02:41;97681.69;;;17.98;100.00
68193;BME280;55012;47.562;18.414;2023-03-14T13:05:09;97682.31;;;17.89;100.00
68193;BME280;55012;47.562;18.414;2023-03-14T13:10:48;97678.22;;;17.64;100.00
68193;BME280;55012;47.562;18.414;2023-03-14T13:13:22;97675.66;;;17.57;100.00
68193;BME280;55012;47.562;18.414;2023-03-14T13:15:49;97673.53;;;17.49;100.00
68193;BME280;55012;47.562;18.414;2023-03-14T13:18:39;97656.63;;;16.72;100.00
68193;BME280;55012;47.562;18.414;2023-03-14T13:21:11;97651.34;;;15.62;100.00
68193;BME280;55012;47.562;18.414;2023-03-14T13:23:38;97630.75;;;15.14;100.00
68193;BME280;55012;47.562;18.414;2023-03-14T13:26:11;97609.59;;;14.99;100.00
68193;BME280;55012;47.562;18.414;2023-03-14T13:28:38;97605.72;;;14.96;100.00
68193;BME280;55012;47.562;18.414;2023-03-14T13:31:04;97637.13;;;15.04;100.00
68193;BME280;55012;47.562;18.414;2023-03-14T13:33:33;97649.41;;;15.16;100.00
68193;BME280;55012;47.562;18.414;2023-03-14T13:36:04;97656.84;;;15.35;100.00
68193;BME280;55012;47.562;18.414;2023-03-14T13:38:33;97667.41;;;15.57;100.00
68193;BME280;55012;47.562;18.414;2023-03-14T13:41:03;97665.56;;;15.73;100.00